Strijen, Netherlands
Current Conditions -  °F | °C
As of 6:55 PM on Thursday 30 Oct 2014 (Local Time) from EHRD Reporting Station
Clear Clear  
Wind Chill: 57°   Ceiling: Unl
Heat Index: 57°   Visibility: 5mi
Dew Point: 55°   Wind: 7mph
Humidity: 94%   Direction: 170°S
Pressure: 30.15"   Gusts: NA
Location:  51.75°N, 4.55°E
Report Text: EHRD 301755Z AUTO 17006KT 140V200 8000 NSC 14/13 Q1021 NOSIG
Loading
Personal Weather Stations






























Interactive Weather Map
Tropical Storm Tracking
New forecast layout! Learn more

10-Day Weather Forecast

Advertisements
Track Severe Weather on mobile